Terminal Aerodrome Forecast
Issued by NWS

Home | Current Version | Previous Version | Text Only | Print | Product List | Glossary On
Versions: 1 2 3 4 5 6 7 8 9 10 11 12 13 14 15 16 17 18 19 20 21 22 23 24 25 26 27
000
FTUS43 KMKX 301519 AAA
TAFUES
TAF AMD
KUES 301519Z 3015/3112 00000KT P6SM SCT150
     FM301600 24006KT P6SM BKN120
     FM310200 30004KT P6SM OVC050
     FM310400 31007KT P6SM OVC030
     FM310600 32012KT P6SM OVC025
     FM310700 32013G20KT P6SM BKN020
     FM311100 34017G29KT P6SM BKN015=

USA.gov is the U.S. government's official web portal to all federal, state and local government web resources and services.